createdAt,value
2022-12-14T00:01:18.245Z,96782.44
2022-12-14T00:03:21.778Z,96777.28
2022-12-14T00:05:24.884Z,96765.84
2022-12-14T00:07:29.785Z,96765.00
2022-12-14T00:09:32.855Z,96766.13
2022-12-14T00:11:37.120Z,96761.31
2022-12-14T00:13:40.993Z,96752.81
2022-12-14T00:15:44.014Z,96754.25
2022-12-14T00:17:47.083Z,96743.16
2022-12-14T00:19:50.099Z,96742.63
2022-12-14T00:21:53.265Z,96745.13
2022-12-14T00:24:00.033Z,96741.66
2022-12-14T00:26:10.384Z,96732.22
2022-12-14T00:28:15.011Z,96732.16
2022-12-14T00:30:20.415Z,96734.41
2022-12-14T00:32:23.429Z,96744.59
2022-12-14T00:34:28.615Z,96737.63
2022-12-14T00:36:32.105Z,96741.72
2022-12-14T00:38:35.388Z,96728.59
2022-12-14T00:40:38.341Z,96727.69
2022-12-14T00:42:41.376Z,96730.00
2022-12-14T00:44:46.548Z,96716.44
2022-12-14T00:46:49.583Z,96701.38
2022-12-14T00:49:01.619Z,96701.38
2022-12-14T00:51:05.004Z,96687.09
2022-12-14T00:53:09.707Z,96689.72
2022-12-14T00:55:12.762Z,96684.69
2022-12-14T00:57:16.244Z,96685.72
2022-12-14T00:59:24.220Z,96682.34
2022-12-14T01:01:31.707Z,96687.69
2022-12-14T01:03:35.633Z,96690.34
2022-12-14T01:05:39.080Z,96700.59
2022-12-14T01:07:42.123Z,96700.44
2022-12-14T01:09:45.129Z,96701.19
2022-12-14T01:11:48.857Z,96699.19
2022-12-14T01:13:56.528Z,96707.50
2022-12-14T01:16:04.493Z,96700.47
2022-12-14T01:18:08.924Z,96705.53
2022-12-14T01:20:12.913Z,96707.78
2022-12-14T01:22:15.854Z,96697.53
2022-12-14T01:24:18.892Z,96706.84
2022-12-14T01:26:22.168Z,96706.69
2022-12-14T01:28:25.137Z,96707.53
2022-12-14T01:30:28.159Z,96714.47
2022-12-14T01:32:31.240Z,96703.56
2022-12-14T01:34:35.576Z,96701.00
2022-12-14T01:36:39.328Z,96700.84
2022-12-14T01:38:42.661Z,96708.53
2022-12-14T01:40:45.605Z,96705.88
2022-12-14T01:42:49.909Z,96692.31
2022-12-14T01:44:56.665Z,96697.28
2022-12-14T01:47:05.095Z,96700.69
2022-12-14T01:49:15.236Z,96706.38
2022-12-14T01:51:19.766Z,96699.47
2022-12-14T01:53:23.517Z,96707.91
2022-12-14T01:55:28.976Z,96689.94
2022-12-14T01:57:35.298Z,96688.88
2022-12-14T01:59:40.653Z,96687.22
2022-12-14T02:01:43.976Z,96681.13
2022-12-14T02:03:52.967Z,96678.47
2022-12-14T02:05:58.329Z,96679.38
2022-12-14T02:08:04.265Z,96671.59
2022-12-14T02:10:09.132Z,96669.19
2022-12-14T02:12:14.505Z,96665.03
2022-12-14T02:14:17.462Z,96660.78
2022-12-14T02:16:20.514Z,96656.53
2022-12-14T02:18:26.912Z,96658.94
2022-12-14T02:20:42.701Z,96662.31
2022-12-14T02:23:18.815Z,96669.34
2022-12-14T02:25:58.109Z,96667.34
2022-12-14T02:28:18.393Z,96652.94
2022-12-14T02:30:23.510Z,96643.53
2022-12-14T02:32:58.897Z,96649.66
2022-12-14T02:35:05.216Z,96648.97
2022-12-14T02:37:12.537Z,96644.03
2022-12-14T02:39:24.015Z,96639.22
2022-12-14T02:41:38.241Z,96639.22
2022-12-14T02:43:49.125Z,96631.69
2022-12-14T02:46:02.785Z,96623.09
2022-12-14T02:48:08.697Z,96607.25
2022-12-14T02:50:15.730Z,96614.22
2022-12-14T02:52:28.361Z,96610.75
2022-12-14T02:54:35.799Z,96616.03
2022-12-14T02:56:42.690Z,96626.13
2022-12-14T02:58:50.509Z,96621.00
2022-12-14T03:00:56.287Z,96619.19
2022-12-14T03:02:59.846Z,96625.97
2022-12-14T03:05:02.913Z,96638.56
2022-12-14T03:07:27.022Z,96634.81
2022-12-14T03:09:31.318Z,96631.19
2022-12-14T03:11:39.066Z,96637.06
2022-12-14T03:13:47.501Z,96636.91
2022-12-14T03:15:58.368Z,96639.38
2022-12-14T03:18:02.709Z,96634.19
2022-12-14T03:20:09.342Z,96631.78
2022-12-14T03:22:16.113Z,96621.69
2022-12-14T03:24:23.167Z,96612.44
2022-12-14T03:26:27.827Z,96613.34
2022-12-14T03:28:33.793Z,96612.84
2022-12-14T03:30:59.540Z,96611.19
2022-12-14T03:33:07.028Z,96606.06
2022-12-14T03:35:15.746Z,96607.78
2022-12-14T03:37:22.810Z,96604.53
2022-12-14T03:39:29.077Z,96598.75
2022-12-14T03:41:36.802Z,96591.38
2022-12-14T03:43:51.193Z,96597.19
2022-12-14T03:45:58.988Z,96590.19
2022-12-14T03:48:08.107Z,96572.31
2022-12-14T03:50:15.988Z,96578.34
2022-12-14T03:52:25.732Z,96576.44
2022-12-14T03:54:37.348Z,96573.78
2022-12-14T03:56:42.977Z,96562.81
2022-12-14T03:58:55.495Z,96561.91
2022-12-14T04:01:05.511Z,96560.09
2022-12-14T04:03:15.561Z,96555.69
2022-12-14T04:05:23.023Z,96554.06
2022-12-14T04:07:34.603Z,96556.31
2022-12-14T04:09:43.876Z,96553.56
2022-12-14T04:12:07.774Z,96559.53
2022-12-14T04:14:32.197Z,96544.06
2022-12-14T04:16:57.574Z,96542.06
2022-12-14T04:19:07.712Z,96529.91
2022-12-14T04:21:13.403Z,96529.91
2022-12-14T04:23:41.285Z,96524.03
2022-12-14T04:26:05.181Z,96528.75
2022-12-14T04:28:33.200Z,96526.75
2022-12-14T04:30:38.701Z,96527.34
2022-12-14T04:32:43.608Z,96520.41
2022-12-14T04:34:51.981Z,96511.13
2022-12-14T04:36:57.251Z,96501.63
2022-12-14T04:39:03.211Z,96518.31
2022-12-14T04:41:09.254Z,96519.00
2022-12-14T04:43:14.808Z,96505.16
2022-12-14T04:45:22.120Z,96511.88
2022-12-14T04:47:31.310Z,96511.03
2022-12-14T04:49:41.028Z,96507.38
2022-12-14T04:51:49.024Z,96512.59
2022-12-14T04:53:54.172Z,96515.81
2022-12-14T04:56:02.205Z,96507.22
2022-12-14T04:58:10.344Z,96513.91
2022-12-14T05:00:14.009Z,96512.81
2022-12-14T05:02:21.844Z,96512.63
2022-12-14T05:04:34.445Z,96509.91
2022-12-14T05:06:41.915Z,96510.66
2022-12-14T05:09:04.160Z,96509.72
2022-12-14T05:11:41.352Z,96509.19
2022-12-14T05:13:37.795Z,96503.97
2022-12-14T05:15:43.381Z,96504.59
2022-12-14T05:17:46.434Z,96511.94
2022-12-14T05:19:50.945Z,96502.38
2022-12-14T05:21:54.089Z,96497.88
2022-12-14T05:23:59.194Z,96498.03
2022-12-14T05:26:02.153Z,96499.72
2022-12-14T05:28:05.621Z,96503.56
2022-12-14T05:30:09.849Z,96500.00
2022-12-14T05:32:14.037Z,96485.50
2022-12-14T05:34:17.099Z,96477.06
2022-12-14T05:36:20.605Z,96473.69
2022-12-14T05:38:23.584Z,96473.19
2022-12-14T05:40:27.935Z,96464.03
2022-12-14T05:42:31.352Z,96468.50
2022-12-14T05:44:34.305Z,96460.91
2022-12-14T05:46:37.379Z,96456.69
2022-12-14T05:48:43.662Z,96451.66
2022-12-14T05:50:49.188Z,96456.63
2022-12-14T05:52:52.646Z,96458.81
2022-12-14T05:55:00.908Z,96453.69
2022-12-14T05:57:09.623Z,96465.25
2022-12-14T05:59:16.193Z,96460.09
2022-12-14T06:01:20.614Z,96457.19
2022-12-14T06:03:26.893Z,96442.50
2022-12-14T06:05:32.001Z,96449.22
2022-12-14T06:07:35.619Z,96443.91
2022-12-14T06:09:40.145Z,96447.97
2022-12-14T06:11:44.546Z,96448.94
2022-12-14T06:13:52.602Z,96447.09
2022-12-14T06:15:56.394Z,96441.78
2022-12-14T06:18:00.828Z,96444.38
2022-12-14T06:20:05.129Z,96441.88
2022-12-14T06:22:08.448Z,96440.16
2022-12-14T06:24:13.483Z,96442.66
2022-12-14T06:26:18.757Z,96440.63
2022-12-14T06:28:22.316Z,96438.78
2022-12-14T06:30:27.306Z,96440.25
2022-12-14T06:32:31.222Z,96428.06
2022-12-14T06:34:39.825Z,96433.09
2022-12-14T06:36:44.510Z,96441.47
2022-12-14T06:38:53.614Z,96432.09
2022-12-14T06:40:56.734Z,96434.84
2022-12-14T06:43:00.548Z,96433.94
2022-12-14T06:45:04.039Z,96424.75
2022-12-14T06:47:08.597Z,96422.38
2022-12-14T06:49:14.358Z,96418.81
2022-12-14T06:51:17.506Z,96424.03
2022-12-14T06:53:20.538Z,96420.91
2022-12-14T06:55:23.883Z,96419.28
2022-12-14T06:57:29.455Z,96422.56
2022-12-14T06:59:32.678Z,96420.09
2022-12-14T07:01:38.328Z,96413.19
2022-12-14T07:03:46.008Z,96401.38
2022-12-14T07:05:50.027Z,96409.91
2022-12-14T07:07:53.306Z,96400.72
2022-12-14T07:10:08.268Z,96395.94
2022-12-14T07:12:14.419Z,96395.94
2022-12-14T07:14:18.028Z,96383.88
2022-12-14T07:16:23.902Z,96387.16
2022-12-14T07:18:51.620Z,96384.69
2022-12-14T07:20:58.785Z,96381.03
2022-12-14T07:23:03.253Z,96373.59
2022-12-14T07:25:08.185Z,96372.13
2022-12-14T07:27:12.481Z,96384.25
2022-12-14T07:29:17.126Z,96374.16
2022-12-14T07:31:40.840Z,96365.78
2022-12-14T07:33:45.890Z,96357.47
2022-12-14T07:35:51.609Z,96339.78
2022-12-14T07:37:54.730Z,96327.31
2022-12-14T07:39:57.921Z,96324.19
2022-12-14T07:42:02.105Z,96327.75
2022-12-14T07:44:06.476Z,96326.94
2022-12-14T07:46:12.116Z,96332.16
2022-12-14T07:48:22.481Z,96325.66
2022-12-14T07:50:27.446Z,96324.19
2022-12-14T07:52:37.396Z,96323.09
2022-12-14T07:54:43.441Z,96330.41
2022-12-14T07:56:49.788Z,96338.88
2022-12-14T07:58:54.206Z,96347.09
2022-12-14T08:00:57.733Z,96350.88
2022-12-14T08:03:02.360Z,96348.69
2022-12-14T08:05:10.715Z,96350.78
2022-12-14T08:07:15.720Z,96352.97
2022-12-14T08:09:21.928Z,96342.72
2022-12-14T08:11:25.806Z,96345.91
2022-12-14T08:13:31.364Z,96349.78
2022-12-14T08:15:38.705Z,96332.25
2022-12-14T08:17:52.403Z,96327.09
2022-12-14T08:19:56.745Z,96333.06
2022-12-14T08:22:01.076Z,96338.09
2022-12-14T08:24:05.345Z,96331.06
2022-12-14T08:26:09.963Z,96324.78
2022-12-14T08:28:12.960Z,96342.28
2022-12-14T08:30:16.586Z,96338.91
2022-12-14T08:32:20.452Z,96351.47
2022-12-14T08:34:24.019Z,96358.03
2022-12-14T08:36:29.188Z,96356.41
2022-12-14T08:38:32.352Z,96362.19
2022-12-14T08:40:36.184Z,96358.50
2022-12-14T08:42:40.729Z,96360.16
2022-12-14T08:44:43.772Z,96354.72
2022-12-14T08:46:47.036Z,96347.22
2022-12-14T08:48:55.077Z,96340.44
2022-12-14T08:51:03.019Z,96348.25
2022-12-14T08:53:06.385Z,96352.63
2022-12-14T08:55:11.163Z,96341.28
2022-12-14T08:57:15.132Z,96337.53
2022-12-14T08:59:52.129Z,96338.66
2022-12-14T09:01:45.717Z,96344.97
2022-12-14T09:03:49.801Z,96339.34
2022-12-14T09:05:54.200Z,96323.66
2022-12-14T09:07:57.418Z,96341.63
2022-12-14T09:10:00.466Z,96335.88
2022-12-14T09:12:06.580Z,96345.97
2022-12-14T09:14:10.070Z,96345.09
2022-12-14T09:16:17.589Z,96344.28
2022-12-14T09:18:21.118Z,96334.59
2022-12-14T09:20:24.328Z,96347.34
2022-12-14T09:22:27.504Z,96339.81
2022-12-14T09:24:31.379Z,96331.50
2022-12-14T09:26:34.901Z,96330.19
2022-12-14T09:28:40.611Z,96328.66
2022-12-14T09:30:46.251Z,96337.19
2022-12-14T09:32:51.762Z,96338.19
2022-12-14T09:34:57.201Z,96322.88
2022-12-14T09:37:05.315Z,96316.13
2022-12-14T09:39:08.353Z,96325.34
2022-12-14T09:41:24.522Z,96319.75
2022-12-14T09:43:37.947Z,96311.41
2022-12-14T09:45:49.682Z,96310.50
2022-12-14T09:47:58.415Z,96312.41
2022-12-14T09:50:05.062Z,96311.59
2022-12-14T09:52:15.975Z,96306.56
2022-12-14T09:54:24.614Z,96304.91
2022-12-14T09:56:29.784Z,96303.00
2022-12-14T09:58:34.871Z,96308.22
2022-12-14T10:00:51.437Z,96306.03
2022-12-14T10:03:16.267Z,96309.25
2022-12-14T10:05:29.123Z,96304.13
2022-12-14T10:07:37.655Z,96304.13
2022-12-14T10:09:44.641Z,96298.78
2022-12-14T10:11:53.585Z,96306.22
2022-12-14T10:14:09.907Z,96313.53
2022-12-14T10:16:21.000Z,96320.22
2022-12-14T10:18:59.107Z,96317.56
2022-12-14T10:21:06.457Z,96312.03
2022-12-14T10:23:16.939Z,96313.41
2022-12-14T10:25:28.568Z,96316.91
2022-12-14T10:27:48.034Z,96312.56
2022-12-14T10:29:59.457Z,96303.47
2022-12-14T10:32:12.805Z,96303.19
2022-12-14T10:34:22.954Z,96303.81
2022-12-14T10:36:31.841Z,96290.25
2022-12-14T10:38:42.228Z,96290.25
2022-12-14T10:40:49.748Z,96294.19
2022-12-14T10:43:01.093Z,96292.97
2022-12-14T10:45:39.805Z,96288.69
2022-12-14T10:47:40.132Z,96287.09
2022-12-14T10:49:50.208Z,96284.34
2022-12-14T10:51:56.325Z,96291.75
2022-12-14T10:54:04.342Z,96291.38
2022-12-14T10:56:12.508Z,96290.13
2022-12-14T10:58:15.561Z,96272.91
2022-12-14T11:00:23.481Z,96269.59
2022-12-14T11:02:29.640Z,96275.47
2022-12-14T11:04:35.860Z,96274.13
2022-12-14T11:06:40.367Z,96270.44
2022-12-14T11:08:48.031Z,96268.78
2022-12-14T11:11:11.561Z,96273.75
2022-12-14T11:13:18.567Z,96276.94
2022-12-14T11:15:25.272Z,96278.28
2022-12-14T11:17:34.343Z,96276.66
2022-12-14T11:19:37.510Z,96274.38
2022-12-14T11:21:42.033Z,96270.97
2022-12-14T11:23:46.163Z,96272.91
2022-12-14T11:25:50.920Z,96270.25
2022-12-14T11:27:54.109Z,96277.38
2022-12-14T11:29:57.479Z,96282.63
2022-12-14T11:32:01.374Z,96280.38
2022-12-14T11:34:05.935Z,96282.63
2022-12-14T11:36:10.052Z,96276.38
2022-12-14T11:38:16.209Z,96275.38
2022-12-14T11:40:21.358Z,96276.28
2022-12-14T11:42:24.915Z,96273.91
2022-12-14T11:44:30.074Z,96277.50
2022-12-14T11:46:52.630Z,96281.72
2022-12-14T11:48:58.076Z,96276.47
2022-12-14T11:51:10.894Z,96270.13
2022-12-14T11:53:17.444Z,96269.72
2022-12-14T11:55:26.861Z,96265.19
2022-12-14T11:57:32.597Z,96260.63
2022-12-14T11:59:39.808Z,96259.13
2022-12-14T12:01:43.150Z,96262.50
2022-12-14T12:03:47.424Z,96262.59
2022-12-14T12:05:50.925Z,96262.72
2022-12-14T12:07:56.560Z,96269.19
2022-12-14T12:10:16.733Z,96273.00
2022-12-14T12:12:22.091Z,96270.81
2022-12-14T12:14:30.607Z,96261.66
2022-12-14T12:16:35.561Z,96263.13
2022-12-14T12:18:46.449Z,96273.91
2022-12-14T12:20:53.435Z,96268.66
2022-12-14T12:23:00.542Z,96264.84
2022-12-14T12:25:29.598Z,96264.25
2022-12-14T12:27:34.860Z,96270.09
2022-12-14T12:29:40.683Z,96264.84
2022-12-14T12:31:48.375Z,96270.09
2022-12-14T12:33:54.668Z,96275.06
2022-12-14T12:36:02.658Z,96275.66
2022-12-14T12:38:10.662Z,96269.41
2022-12-14T12:40:20.901Z,96267.84
2022-12-14T12:42:30.481Z,96254.16
2022-12-14T12:44:41.916Z,96263.41
2022-12-14T12:47:22.977Z,96274.34
2022-12-14T12:49:18.505Z,96269.00
2022-12-14T12:51:24.476Z,96267.84
2022-12-14T12:53:33.066Z,96281.34
2022-12-14T12:55:42.755Z,96283.06
2022-12-14T12:57:49.247Z,96288.63
2022-12-14T12:59:54.836Z,96289.69
2022-12-14T13:02:00.962Z,96288.94
2022-12-14T13:04:06.584Z,96288.84
2022-12-14T13:06:16.322Z,96297.28
2022-12-14T13:08:24.658Z,96291.41
2022-12-14T13:10:31.693Z,96291.41
2022-12-14T13:12:38.335Z,96303.47
2022-12-14T13:14:43.631Z,96306.94
2022-12-14T13:16:59.947Z,96308.72
2022-12-14T13:19:40.460Z,96318.38
2022-12-14T13:21:35.200Z,96315.72
2022-12-14T13:23:46.322Z,96315.63
2022-12-14T13:25:56.132Z,96323.34
2022-12-14T13:28:17.146Z,96319.09
2022-12-14T13:30:30.410Z,96315.63
2022-12-14T13:32:45.354Z,96312.00
2022-12-14T13:34:55.550Z,96307.06
2022-12-14T13:37:11.847Z,96313.84
2022-12-14T13:40:07.131Z,96309.63
2022-12-14T13:42:17.755Z,96309.41
2022-12-14T13:44:44.113Z,96306.44
2022-12-14T13:46:47.635Z,96307.38
2022-12-14T13:48:53.142Z,96304.72
2022-12-14T13:51:01.941Z,96308.00
2022-12-14T13:53:10.511Z,96316.44
2022-12-14T13:55:29.368Z,96319.00
2022-12-14T13:57:32.862Z,96325.72
2022-12-14T13:59:42.352Z,96328.19
2022-12-14T14:01:57.793Z,96334.97
2022-12-14T14:04:22.774Z,96326.94
2022-12-14T14:06:38.499Z,96331.16
2022-12-14T14:08:46.337Z,96326.94
2022-12-14T14:10:54.172Z,96330.34
2022-12-14T14:14:05.133Z,96331.88
2022-12-14T14:16:30.558Z,96340.34
2022-12-14T14:18:36.450Z,96348.16
2022-12-14T14:20:42.226Z,96356.69
2022-12-14T14:23:23.603Z,96355.03
2022-12-14T14:25:40.826Z,96358.44
2022-12-14T14:27:50.813Z,96361.94
2022-12-14T14:29:55.902Z,96356.78
2022-12-14T14:32:02.695Z,96359.47
2022-12-14T14:34:06.472Z,96363.91
2022-12-14T14:36:11.864Z,96361.53
2022-12-14T14:38:25.343Z,96367.59
2022-12-14T14:41:06.343Z,96366.69
2022-12-14T14:43:00.316Z,96369.47
2022-12-14T14:45:05.858Z,96364.22
2022-12-14T14:47:27.695Z,96371.28
2022-12-14T14:49:40.967Z,96386.00
2022-12-14T14:51:43.995Z,96380.06
2022-12-14T14:53:50.597Z,96393.03
2022-12-14T14:56:03.539Z,96393.22
2022-12-14T14:58:29.196Z,96400.94
2022-12-14T15:00:40.929Z,96405.34
2022-12-14T15:02:45.959Z,96403.81
2022-12-14T15:04:51.635Z,96409.88
2022-12-14T15:06:58.533Z,96423.56
2022-12-14T15:09:06.304Z,96433.97
2022-12-14T15:11:16.529Z,96430.66
2022-12-14T15:13:22.524Z,96446.19
2022-12-14T15:15:34.500Z,96449.69
2022-12-14T15:17:37.859Z,96461.72
2022-12-14T15:19:47.971Z,96466.94
2022-12-14T15:21:52.694Z,96464.47
2022-12-14T15:23:57.220Z,96462.09
2022-12-14T15:26:02.112Z,96469.09
2022-12-14T15:28:07.564Z,96470.94
2022-12-14T15:30:20.947Z,96483.06
2022-12-14T15:32:25.323Z,96484.91
2022-12-14T15:34:30.372Z,96491.81
2022-12-14T15:36:37.454Z,96499.53
2022-12-14T15:38:40.546Z,96497.06
2022-12-14T15:40:55.030Z,96497.97
2022-12-14T15:43:00.009Z,96492.09
2022-12-14T15:45:10.159Z,96486.97
2022-12-14T15:47:27.597Z,96503.13
2022-12-14T15:49:30.764Z,96502.41
2022-12-14T15:51:37.759Z,96500.72
2022-12-14T15:53:42.433Z,96498.25
2022-12-14T15:55:53.516Z,96511.22
2022-12-14T15:58:07.723Z,96509.53
2022-12-14T16:00:13.437Z,96526.53
2022-12-14T16:02:22.913Z,96530.97
2022-12-14T16:04:29.161Z,96530.13
2022-12-14T16:06:33.622Z,96526.72
2022-12-14T16:08:39.795Z,96531.91
2022-12-14T16:10:43.846Z,96527.94
2022-12-14T16:12:48.688Z,96533.09
2022-12-14T16:14:54.303Z,96535.56
2022-12-14T16:16:57.751Z,96538.91
2022-12-14T16:19:25.306Z,96537.13
2022-12-14T16:21:29.824Z,96553.28
2022-12-14T16:23:34.786Z,96550.63
2022-12-14T16:25:52.075Z,96547.16
2022-12-14T16:27:55.726Z,96555.03
2022-12-14T16:30:17.638Z,96554.13
2022-12-14T16:32:21.943Z,96551.47
2022-12-14T16:34:27.433Z,96555.84
2022-12-14T16:36:31.285Z,96554.31
2022-12-14T16:38:39.210Z,96553.47
2022-12-14T16:40:57.339Z,96558.63
2022-12-14T16:43:00.460Z,96551.38
2022-12-14T16:45:03.781Z,96553.22
2022-12-14T16:47:26.810Z,96560.91
2022-12-14T16:49:33.144Z,96556.88
2022-12-14T16:54:06.449Z,96572.84
2022-12-14T16:56:17.147Z,96575.41
2022-12-14T16:58:20.239Z,96579.81
2022-12-14T17:00:29.511Z,96575.03
2022-12-14T17:02:35.675Z,96574.22
2022-12-14T17:04:39.204Z,96583.56
2022-12-14T17:06:46.931Z,96584.31
2022-12-14T17:08:49.915Z,96590.09
2022-12-14T17:10:53.025Z,96587.53
2022-12-14T17:12:59.043Z,96592.69
2022-12-14T17:15:02.148Z,96594.25
2022-12-14T17:17:05.669Z,96596.72
2022-12-14T17:19:09.135Z,96600.94
2022-12-14T17:21:18.489Z,96610.22
2022-12-14T17:23:21.708Z,96612.78
2022-12-14T17:25:25.289Z,96616.44
2022-12-14T17:27:28.471Z,96616.44
2022-12-14T17:29:34.223Z,96623.97
2022-12-14T17:31:39.888Z,96629.13
2022-12-14T17:33:46.299Z,96638.50
2022-12-14T17:35:49.521Z,96640.16
2022-12-14T17:37:55.246Z,96639.31
2022-12-14T17:39:59.683Z,96635.19
2022-12-14T17:42:02.751Z,96630.78
2022-12-14T17:44:06.148Z,96639.22
2022-12-14T17:46:10.654Z,96643.34
2022-12-14T17:48:14.453Z,96641.69
2022-12-14T17:50:19.054Z,96632.16
2022-12-14T17:52:24.908Z,96627.84
2022-12-14T17:54:29.283Z,96639.88
2022-12-14T17:56:32.437Z,96641.59
2022-12-14T17:58:35.519Z,96647.59
2022-12-14T18:00:56.849Z,96643.28
2022-12-14T18:03:05.072Z,96654.38
2022-12-14T18:05:15.611Z,96657.88
2022-12-14T18:07:18.710Z,96652.75
2022-12-14T18:09:21.870Z,96656.03
2022-12-14T18:11:26.848Z,96655.22
2022-12-14T18:13:32.312Z,96660.38
2022-12-14T18:15:38.898Z,96654.38
2022-12-14T18:17:41.973Z,96668.88
2022-12-14T18:19:47.903Z,96667.13
2022-12-14T18:21:54.925Z,96667.13
2022-12-14T18:24:11.989Z,96662.00
2022-12-14T18:26:19.755Z,96678.19
2022-12-14T18:28:23.418Z,96675.44
2022-12-14T18:30:27.243Z,96686.53
2022-12-14T18:32:30.378Z,96683.97
2022-12-14T18:34:33.472Z,96682.28
2022-12-14T18:36:37.981Z,96681.38
2022-12-14T18:38:50.036Z,96689.81
2022-12-14T18:40:54.942Z,96680.38
2022-12-14T18:42:58.262Z,96680.47
2022-12-14T18:45:03.512Z,96675.44
2022-12-14T18:47:33.690Z,96683.22
2022-12-14T18:49:29.885Z,96686.78
2022-12-14T18:51:32.970Z,96692.03
2022-12-14T18:53:37.838Z,96687.69
2022-12-14T18:55:41.990Z,96693.88
2022-12-14T18:57:45.501Z,96680.25
2022-12-14T18:59:48.528Z,96687.25
2022-12-14T19:01:51.810Z,96688.06
2022-12-14T19:03:55.171Z,96681.19
2022-12-14T19:06:34.750Z,96692.28
2022-12-14T19:08:28.790Z,96695.03
2022-12-14T19:10:33.478Z,96694.13
2022-12-14T19:12:36.569Z,96706.22
2022-12-14T19:14:40.303Z,96705.31
2022-12-14T19:16:43.385Z,96709.66
2022-12-14T19:18:46.478Z,96701.00
2022-12-14T19:20:49.959Z,96697.53
2022-12-14T19:22:53.178Z,96716.25
2022-12-14T19:24:56.942Z,96726.53
2022-12-14T19:27:02.158Z,96718.09
2022-12-14T19:29:06.294Z,96725.88
2022-12-14T19:31:11.549Z,96737.06
2022-12-14T19:33:15.094Z,96720.75
2022-12-14T19:35:19.003Z,96721.56
2022-12-14T19:37:23.015Z,96721.66
2022-12-14T19:39:26.461Z,96729.34
2022-12-14T19:41:29.467Z,96726.97
2022-12-14T19:43:34.946Z,96727.31
2022-12-14T19:45:39.597Z,96727.41
2022-12-14T19:47:44.037Z,96724.00
2022-12-14T19:49:47.052Z,96719.13
2022-12-14T19:51:50.054Z,96726.72
2022-12-14T19:53:53.729Z,96724.94
2022-12-14T19:55:56.950Z,96729.91
2022-12-14T19:58:00.023Z,96738.72
2022-12-14T20:00:05.564Z,96731.94
2022-12-14T20:02:16.855Z,96734.41
2022-12-14T20:04:20.173Z,96730.84
2022-12-14T20:06:23.297Z,96727.53
2022-12-14T20:08:49.292Z,96731.84
2022-12-14T20:10:53.711Z,96737.72
2022-12-14T20:12:56.755Z,96735.81
2022-12-14T20:15:00.089Z,96744.34
2022-12-14T20:17:04.579Z,96743.44
2022-12-14T20:19:08.280Z,96748.59
2022-12-14T20:21:17.195Z,96756.13
2022-12-14T20:23:25.006Z,96754.38
2022-12-14T20:25:28.070Z,96761.09
2022-12-14T20:27:34.832Z,96759.34
2022-12-14T20:29:42.064Z,96760.06
2022-12-14T20:31:45.267Z,96764.97
2022-12-14T20:33:50.534Z,96759.91
2022-12-14T20:35:54.067Z,96763.38
2022-12-14T20:37:57.161Z,96759.34
2022-12-14T20:40:00.151Z,96763.75
2022-12-14T20:42:03.267Z,96774.03
2022-12-14T20:44:09.283Z,96770.53
2022-12-14T20:46:33.877Z,96773.84
2022-12-14T20:48:37.146Z,96780.63
2022-12-14T20:50:43.337Z,96777.31
2022-12-14T20:52:46.438Z,96770.44
2022-12-14T20:54:52.272Z,96772.19
2022-12-14T20:56:56.308Z,96767.78
2022-12-14T20:58:59.390Z,96769.44
2022-12-14T21:01:07.083Z,96766.88
2022-12-14T21:03:11.248Z,96766.72
2022-12-14T21:05:14.624Z,96766.88
2022-12-14T21:07:24.261Z,96766.78
2022-12-14T21:09:28.985Z,96759.91
2022-12-14T21:11:50.331Z,96766.72
2022-12-14T21:13:53.528Z,96764.13
2022-12-14T21:15:56.742Z,96762.38
2022-12-14T21:17:59.945Z,96767.34
2022-12-14T21:20:03.517Z,96776.81
2022-12-14T21:22:08.239Z,96776.81
2022-12-14T21:24:31.112Z,96776.72
2022-12-14T21:26:37.892Z,96780.13
2022-12-14T21:28:41.001Z,96778.28
2022-12-14T21:30:44.062Z,96784.34
2022-12-14T21:32:47.134Z,96780.19
2022-12-14T21:34:52.734Z,96784.34
2022-12-14T21:36:55.885Z,96792.88
2022-12-14T21:38:58.945Z,96790.22
2022-12-14T21:41:24.641Z,96787.84
2022-12-14T21:43:28.002Z,96796.34
2022-12-14T21:45:31.388Z,96800.75
2022-12-14T21:47:34.916Z,96796.53
2022-12-14T21:49:38.699Z,96795.63
2022-12-14T21:51:41.906Z,96789.66
2022-12-14T21:53:58.713Z,96791.31
2022-12-14T21:56:21.952Z,96786.25
2022-12-14T21:58:25.394Z,96793.06
2022-12-14T22:00:28.549Z,96786.25
2022-12-14T22:02:32.123Z,96786.25
2022-12-14T22:04:39.709Z,96788.72
2022-12-14T22:06:43.171Z,96791.38
2022-12-14T22:08:46.354Z,96796.53
2022-12-14T22:10:49.410Z,96797.38
2022-12-14T22:12:52.490Z,96802.53
2022-12-14T22:14:56.942Z,96803.41
2022-12-14T22:17:00.160Z,96805.91
2022-12-14T22:19:03.305Z,96808.47
2022-12-14T22:21:07.499Z,96797.38
2022-12-14T22:23:10.816Z,96802.59
2022-12-14T22:25:13.862Z,96806.00
2022-12-14T22:27:16.929Z,96802.69
2022-12-14T22:29:22.008Z,96805.19
2022-12-14T22:31:26.911Z,96808.56
2022-12-14T22:33:31.280Z,96808.72
2022-12-14T22:35:34.668Z,96805.25
2022-12-14T22:37:37.751Z,96807.91
2022-12-14T22:39:40.720Z,96805.34
2022-12-14T22:41:43.915Z,96799.34
2022-12-14T22:43:56.388Z,96798.63
2022-12-14T22:46:01.532Z,96801.19
2022-12-14T22:48:06.328Z,96800.38
2022-12-14T22:50:10.272Z,96798.69
2022-12-14T22:52:13.298Z,96791.00
2022-12-14T22:54:19.101Z,96791.94
2022-12-14T22:56:24.050Z,96797.06
2022-12-14T22:58:28.519Z,96799.72
2022-12-14T23:00:31.537Z,96793.91
2022-12-14T23:02:35.103Z,96799.03
2022-12-14T23:04:39.960Z,96798.22
2022-12-14T23:06:43.164Z,96807.50
2022-12-14T23:09:05.245Z,96813.63
2022-12-14T23:11:26.458Z,96811.97
2022-12-14T23:13:47.029Z,96814.53
2022-12-14T23:16:07.939Z,96831.63
2022-12-14T23:18:28.540Z,96817.13
2022-12-14T23:20:50.827Z,96822.25
2022-12-14T23:23:11.115Z,96820.69
2022-12-14T23:25:31.524Z,96829.41
2022-12-14T23:27:53.167Z,96837.34
2022-12-14T23:30:13.811Z,96839.91
2022-12-14T23:32:35.085Z,96833.28
2022-12-14T23:34:55.642Z,96835.03
2022-12-14T23:37:20.530Z,96835.94
2022-12-14T23:39:41.254Z,96834.22
2022-12-14T23:42:01.720Z,96832.63
2022-12-14T23:44:22.272Z,96833.44
2022-12-14T23:46:42.951Z,96832.78
2022-12-14T23:49:03.386Z,96816.63
2022-12-14T23:51:25.297Z,96818.28
2022-12-14T23:53:49.919Z,96831.13
2022-12-14T23:56:10.806Z,96817.53
2022-12-14T23:58:31.138Z,96821.00
